sensor_id;sensor_type;location;lat;lon;timestamp;temperature;humidity
13049;DHT22;6591;51.446;5.404;2023-02-15T00:00:12;4.60;99.90
13049;DHT22;6591;51.446;5.404;2023-02-15T00:02:40;4.40;99.90
13049;DHT22;6591;51.446;5.404;2023-02-15T00:05:08;4.40;99.90
13049;DHT22;6591;51.446;5.404;2023-02-15T00:07:35;4.30;99.90
13049;DHT22;6591;51.446;5.404;2023-02-15T00:10:03;4.30;99.90
13049;DHT22;6591;51.446;5.404;2023-02-15T00:12:31;4.40;99.90
13049;DHT22;6591;51.446;5.404;2023-02-15T00:14:58;6.60;99.90
13049;DHT22;6591;51.446;5.404;2023-02-15T00:17:27;5.30;99.90
13049;DHT22;6591;51.446;5.404;2023-02-15T00:19:57;6.00;99.90
13049;DHT22;6591;51.446;5.404;2023-02-15T00:22:25;5.70;99.90
13049;DHT22;6591;51.446;5.404;2023-02-15T00:24:52;4.40;99.90
13049;DHT22;6591;51.446;5.404;2023-02-15T00:27:19;4.40;99.90
13049;DHT22;6591;51.446;5.404;2023-02-15T00:29:46;4.30;99.90
13049;DHT22;6591;51.446;5.404;2023-02-15T00:32:14;4.30;99.90
13049;DHT22;6591;51.446;5.404;2023-02-15T00:34:41;4.30;99.90
13049;DHT22;6591;51.446;5.404;2023-02-15T00:37:12;4.80;99.90
13049;DHT22;6591;51.446;5.404;2023-02-15T00:39:39;4.20;99.90
13049;DHT22;6591;51.446;5.404;2023-02-15T00:42:06;5.70;99.90
13049;DHT22;6591;51.446;5.404;2023-02-15T00:44:33;5.50;99.90
13049;DHT22;6591;51.446;5.404;2023-02-15T00:47:01;5.20;99.90
13049;DHT22;6591;51.446;5.404;2023-02-15T00:49:28;5.60;99.90
13049;DHT22;6591;51.446;5.404;2023-02-15T00:51:55;5.10;99.90
13049;DHT22;6591;51.446;5.404;2023-02-15T00:54:22;4.10;99.90
13049;DHT22;6591;51.446;5.404;2023-02-15T00:56:49;4.00;99.90
13049;DHT22;6591;51.446;5.404;2023-02-15T00:59:16;4.00;99.90
13049;DHT22;6591;51.446;5.404;2023-02-15T01:01:44;4.00;99.90
13049;DHT22;6591;51.446;5.404;2023-02-15T01:04:11;4.90;99.90
13049;DHT22;6591;51.446;5.404;2023-02-15T01:06:38;4.50;99.90
13049;DHT22;6591;51.446;5.404;2023-02-15T01:09:09;5.40;99.90
13049;DHT22;6591;51.446;5.404;2023-02-15T01:11:41;5.40;99.90
13049;DHT22;6591;51.446;5.404;2023-02-15T01:14:08;3.70;99.90
13049;DHT22;6591;51.446;5.404;2023-02-15T01:16:37;5.90;99.90
13049;DHT22;6591;51.446;5.404;2023-02-15T01:19:05;4.30;99.90
13049;DHT22;6591;51.446;5.404;2023-02-15T01:21:33;5.00;99.90
13049;DHT22;6591;51.446;5.404;2023-02-15T01:24:01;3.70;99.90
13049;DHT22;6591;51.446;5.404;2023-02-15T01:26:29;3.70;99.90
13049;DHT22;6591;51.446;5.404;2023-02-15T01:28:57;3.70;99.90
13049;DHT22;6591;51.446;5.404;2023-02-15T01:31:24;5.80;99.90
13049;DHT22;6591;51.446;5.404;2023-02-15T01:33:51;3.80;99.90
13049;DHT22;6591;51.446;5.404;2023-02-15T01:36:19;3.80;99.90
13049;DHT22;6591;51.446;5.404;2023-02-15T01:38:46;4.80;99.90
13049;DHT22;6591;51.446;5.404;2023-02-15T01:41:14;3.70;99.90
13049;DHT22;6591;51.446;5.404;2023-02-15T01:43:55;3.80;99.90
13049;DHT22;6591;51.446;5.404;2023-02-15T01:46:38;3.70;99.90
13049;DHT22;6591;51.446;5.404;2023-02-15T01:49:15;3.70;99.90
13049;DHT22;6591;51.446;5.404;2023-02-15T01:51:48;5.60;99.90
13049;DHT22;6591;51.446;5.404;2023-02-15T01:54:25;3.60;99.90
13049;DHT22;6591;51.446;5.404;2023-02-15T01:57:04;5.80;99.90
13049;DHT22;6591;51.446;5.404;2023-02-15T01:59:35;5.50;99.90
13049;DHT22;6591;51.446;5.404;2023-02-15T02:04:54;3.30;99.90
13049;DHT22;6591;51.446;5.404;2023-02-15T02:07:28;3.30;99.90
13049;DHT22;6591;51.446;5.404;2023-02-15T02:09:59;3.20;99.90
13049;DHT22;6591;51.446;5.404;2023-02-15T02:12:28;3.20;99.90
13049;DHT22;6591;51.446;5.404;2023-02-15T02:14:57;3.10;99.90
13049;DHT22;6591;51.446;5.404;2023-02-15T02:30:09;3.00;99.90
13049;DHT22;6591;51.446;5.404;2023-02-15T02:35:33;2.80;99.90
13049;DHT22;6591;51.446;5.404;2023-02-15T02:38:27;2.80;99.90
13049;DHT22;6591;51.446;5.404;2023-02-15T02:50:00;2.70;99.90
13049;DHT22;6591;51.446;5.404;2023-02-15T02:52:41;2.70;99.90
13049;DHT22;6591;51.446;5.404;2023-02-15T02:57:52;2.70;99.90
13049;DHT22;6591;51.446;5.404;2023-02-15T03:00:24;2.60;99.90
13049;DHT22;6591;51.446;5.404;2023-02-15T03:02:59;3.70;99.90
13049;DHT22;6591;51.446;5.404;2023-02-15T03:05:34;2.60;99.90
13049;DHT22;6591;51.446;5.404;2023-02-15T03:08:06;2.60;99.90
13049;DHT22;6591;51.446;5.404;2023-02-15T03:10:39;3.90;99.90
13049;DHT22;6591;51.446;5.404;2023-02-15T03:13:08;2.50;99.90
13049;DHT22;6591;51.446;5.404;2023-02-15T03:15:39;2.50;99.90
13049;DHT22;6591;51.446;5.404;2023-02-15T03:18:45;2.50;99.90
13049;DHT22;6591;51.446;5.404;2023-02-15T03:21:32;2.50;99.90
13049;DHT22;6591;51.446;5.404;2023-02-15T03:24:14;2.50;99.90
13049;DHT22;6591;51.446;5.404;2023-02-15T03:26:50;2.90;99.90
13049;DHT22;6591;51.446;5.404;2023-02-15T03:29:24;2.40;99.90
13049;DHT22;6591;51.446;5.404;2023-02-15T03:32:02;2.40;99.90
13049;DHT22;6591;51.446;5.404;2023-02-15T03:34:32;2.40;99.90
13049;DHT22;6591;51.446;5.404;2023-02-15T03:39:57;2.40;99.90
13049;DHT22;6591;51.446;5.404;2023-02-15T03:45:46;2.50;99.90
13049;DHT22;6591;51.446;5.404;2023-02-15T03:48:34;2.50;99.90
13049;DHT22;6591;51.446;5.404;2023-02-15T03:51:09;2.60;99.90
13049;DHT22;6591;51.446;5.404;2023-02-15T03:54:05;2.60;99.90
13049;DHT22;6591;51.446;5.404;2023-02-15T03:56:38;4.10;99.90
13049;DHT22;6591;51.446;5.404;2023-02-15T03:59:07;2.80;99.90
13049;DHT22;6591;51.446;5.404;2023-02-15T04:04:45;2.80;99.90
13049;DHT22;6591;51.446;5.404;2023-02-15T04:07:14;2.90;99.90
13049;DHT22;6591;51.446;5.404;2023-02-15T04:09:41;2.90;99.90
13049;DHT22;6591;51.446;5.404;2023-02-15T04:12:26;2.80;99.90
13049;DHT22;6591;51.446;5.404;2023-02-15T04:14:53;2.80;99.90
13049;DHT22;6591;51.446;5.404;2023-02-15T04:17:39;2.80;99.90
13049;DHT22;6591;51.446;5.404;2023-02-15T04:20:06;2.70;99.90
13049;DHT22;6591;51.446;5.404;2023-02-15T04:22:53;2.70;99.90
13049;DHT22;6591;51.446;5.404;2023-02-15T04:25:38;2.70;99.90
13049;DHT22;6591;51.446;5.404;2023-02-15T04:28:05;2.60;99.90
13049;DHT22;6591;51.446;5.404;2023-02-15T04:30:34;2.60;99.90
13049;DHT22;6591;51.446;5.404;2023-02-15T04:33:01;2.80;99.90
13049;DHT22;6591;51.446;5.404;2023-02-15T04:35:28;4.00;99.90
13049;DHT22;6591;51.446;5.404;2023-02-15T04:37:55;2.40;99.90
13049;DHT22;6591;51.446;5.404;2023-02-15T04:40:22;2.40;99.90
13049;DHT22;6591;51.446;5.404;2023-02-15T04:42:50;2.30;99.90
13049;DHT22;6591;51.446;5.404;2023-02-15T04:45:17;2.30;99.90
13049;DHT22;6591;51.446;5.404;2023-02-15T04:47:44;2.30;99.90
13049;DHT22;6591;51.446;5.404;2023-02-15T04:50:11;2.20;99.90
13049;DHT22;6591;51.446;5.404;2023-02-15T04:52:39;2.20;99.90
13049;DHT22;6591;51.446;5.404;2023-02-15T04:55:06;2.20;99.90
13049;DHT22;6591;51.446;5.404;2023-02-15T04:57:33;2.20;99.90
13049;DHT22;6591;51.446;5.404;2023-02-15T05:00:00;2.10;99.90
13049;DHT22;6591;51.446;5.404;2023-02-15T05:02:27;2.10;99.90
13049;DHT22;6591;51.446;5.404;2023-02-15T05:04:54;2.10;99.90
13049;DHT22;6591;51.446;5.404;2023-02-15T05:07:21;2.10;99.90
13049;DHT22;6591;51.446;5.404;2023-02-15T05:09:49;2.10;99.90
13049;DHT22;6591;51.446;5.404;2023-02-15T05:12:16;2.20;99.90
13049;DHT22;6591;51.446;5.404;2023-02-15T05:14:43;2.20;99.90
13049;DHT22;6591;51.446;5.404;2023-02-15T05:17:10;2.20;99.90
13049;DHT22;6591;51.446;5.404;2023-02-15T05:19:37;3.20;99.90
13049;DHT22;6591;51.446;5.404;2023-02-15T05:22:04;2.20;99.90
13049;DHT22;6591;51.446;5.404;2023-02-15T05:24:31;2.20;99.90
13049;DHT22;6591;51.446;5.404;2023-02-15T05:27:20;2.20;99.90
13049;DHT22;6591;51.446;5.404;2023-02-15T05:30:06;2.20;99.90
13049;DHT22;6591;51.446;5.404;2023-02-15T05:32:38;2.20;99.90
13049;DHT22;6591;51.446;5.404;2023-02-15T05:35:06;2.20;99.90
13049;DHT22;6591;51.446;5.404;2023-02-15T05:37:34;2.20;99.90
13049;DHT22;6591;51.446;5.404;2023-02-15T05:40:01;2.20;99.90
13049;DHT22;6591;51.446;5.404;2023-02-15T05:42:28;2.30;99.90
13049;DHT22;6591;51.446;5.404;2023-02-15T05:44:55;2.20;99.90
13049;DHT22;6591;51.446;5.404;2023-02-15T05:47:22;2.20;99.90
13049;DHT22;6591;51.446;5.404;2023-02-15T05:49:49;2.20;99.90
13049;DHT22;6591;51.446;5.404;2023-02-15T05:52:15;2.20;99.90
13049;DHT22;6591;51.446;5.404;2023-02-15T05:54:43;2.20;99.90
13049;DHT22;6591;51.446;5.404;2023-02-15T05:57:11;2.20;99.90
13049;DHT22;6591;51.446;5.404;2023-02-15T05:59:38;2.20;99.90
13049;DHT22;6591;51.446;5.404;2023-02-15T06:02:05;2.20;99.90
13049;DHT22;6591;51.446;5.404;2023-02-15T06:04:33;2.10;99.90
13049;DHT22;6591;51.446;5.404;2023-02-15T06:07:00;2.10;99.90
13049;DHT22;6591;51.446;5.404;2023-02-15T06:09:30;2.00;99.90
13049;DHT22;6591;51.446;5.404;2023-02-15T06:11:57;1.90;99.90
13049;DHT22;6591;51.446;5.404;2023-02-15T06:14:24;1.90;99.90
13049;DHT22;6591;51.446;5.404;2023-02-15T06:16:51;1.90;99.90
13049;DHT22;6591;51.446;5.404;2023-02-15T06:19:18;1.10;99.90
13049;DHT22;6591;51.446;5.404;2023-02-15T06:21:46;1.80;99.90
13049;DHT22;6591;51.446;5.404;2023-02-15T06:24:14;1.80;99.90
13049;DHT22;6591;51.446;5.404;2023-02-15T06:26:41;2.00;99.90
13049;DHT22;6591;51.446;5.404;2023-02-15T06:29:08;1.90;99.90
13049;DHT22;6591;51.446;5.404;2023-02-15T06:31:39;1.70;99.90
13049;DHT22;6591;51.446;5.404;2023-02-15T06:34:06;1.70;99.90
13049;DHT22;6591;51.446;5.404;2023-02-15T06:36:33;1.70;99.90
13049;DHT22;6591;51.446;5.404;2023-02-15T06:39:00;1.70;99.90
13049;DHT22;6591;51.446;5.404;2023-02-15T06:41:29;1.70;99.90
13049;DHT22;6591;51.446;5.404;2023-02-15T06:43:56;1.70;99.90
13049;DHT22;6591;51.446;5.404;2023-02-15T06:46:23;1.70;99.90
13049;DHT22;6591;51.446;5.404;2023-02-15T06:48:53;1.60;99.90
13049;DHT22;6591;51.446;5.404;2023-02-15T06:51:20;1.70;99.90
13049;DHT22;6591;51.446;5.404;2023-02-15T06:53:47;1.60;99.90
13049;DHT22;6591;51.446;5.404;2023-02-15T06:56:14;1.70;99.90
13049;DHT22;6591;51.446;5.404;2023-02-15T06:58:42;1.70;99.90
13049;DHT22;6591;51.446;5.404;2023-02-15T07:01:10;1.70;99.90
13049;DHT22;6591;51.446;5.404;2023-02-15T07:03:37;1.80;99.90
13049;DHT22;6591;51.446;5.404;2023-02-15T07:06:04;1.80;99.90
13049;DHT22;6591;51.446;5.404;2023-02-15T07:08:37;3.40;99.90
13049;DHT22;6591;51.446;5.404;2023-02-15T07:11:06;1.80;99.90
13049;DHT22;6591;51.446;5.404;2023-02-15T07:13:53;1.80;99.90
13049;DHT22;6591;51.446;5.404;2023-02-15T07:16:20;3.10;99.90
13049;DHT22;6591;51.446;5.404;2023-02-15T07:18:47;1.90;99.90
13049;DHT22;6591;51.446;5.404;2023-02-15T07:21:14;2.90;99.90
13049;DHT22;6591;51.446;5.404;2023-02-15T07:23:42;2.00;99.90
13049;DHT22;6591;51.446;5.404;2023-02-15T07:26:09;2.00;99.90
13049;DHT22;6591;51.446;5.404;2023-02-15T07:28:36;2.10;99.90
13049;DHT22;6591;51.446;5.404;2023-02-15T07:31:04;2.10;99.90
13049;DHT22;6591;51.446;5.404;2023-02-15T07:33:32;2.20;99.90
13049;DHT22;6591;51.446;5.404;2023-02-15T07:36:02;2.20;99.90
13049;DHT22;6591;51.446;5.404;2023-02-15T07:38:36;2.60;99.90
13049;DHT22;6591;51.446;5.404;2023-02-15T07:41:06;2.30;99.90
13049;DHT22;6591;51.446;5.404;2023-02-15T07:43:39;2.40;99.90
13049;DHT22;6591;51.446;5.404;2023-02-15T07:46:11;2.40;99.90
13049;DHT22;6591;51.446;5.404;2023-02-15T07:48:41;4.50;99.90
13049;DHT22;6591;51.446;5.404;2023-02-15T07:51:10;2.40;99.90
13049;DHT22;6591;51.446;5.404;2023-02-15T07:53:39;2.60;99.90
13049;DHT22;6591;51.446;5.404;2023-02-15T07:56:12;2.70;99.90
13049;DHT22;6591;51.446;5.404;2023-02-15T07:58:40;2.80;99.90
13049;DHT22;6591;51.446;5.404;2023-02-15T08:01:25;2.90;99.90
13049;DHT22;6591;51.446;5.404;2023-02-15T08:04:04;2.90;99.90
13049;DHT22;6591;51.446;5.404;2023-02-15T08:06:35;3.00;99.90
13049;DHT22;6591;51.446;5.404;2023-02-15T08:09:07;3.10;99.90
13049;DHT22;6591;51.446;5.404;2023-02-15T08:11:37;3.20;99.90
13049;DHT22;6591;51.446;5.404;2023-02-15T08:16:55;3.10;99.90
13049;DHT22;6591;51.446;5.404;2023-02-15T08:19:28;3.50;99.90
13049;DHT22;6591;51.446;5.404;2023-02-15T08:22:04;3.60;99.90
13049;DHT22;6591;51.446;5.404;2023-02-15T08:24:35;3.80;99.90
13049;DHT22;6591;51.446;5.404;2023-02-15T08:27:07;3.90;99.90
13049;DHT22;6591;51.446;5.404;2023-02-15T08:29:37;5.40;99.90
13049;DHT22;6591;51.446;5.404;2023-02-15T08:32:10;4.20;99.90
13049;DHT22;6591;51.446;5.404;2023-02-15T08:34:41;4.30;99.90
13049;DHT22;6591;51.446;5.404;2023-02-15T08:37:09;4.50;99.90
13049;DHT22;6591;51.446;5.404;2023-02-15T08:39:36;4.70;99.90
13049;DHT22;6591;51.446;5.404;2023-02-15T08:42:03;4.90;99.90
13049;DHT22;6591;51.446;5.404;2023-02-15T08:44:30;5.10;99.90
13049;DHT22;6591;51.446;5.404;2023-02-15T08:46:57;5.20;99.90
13049;DHT22;6591;51.446;5.404;2023-02-15T08:49:31;5.40;99.90
13049;DHT22;6591;51.446;5.404;2023-02-15T08:51:58;5.60;99.90
13049;DHT22;6591;51.446;5.404;2023-02-15T08:54:26;7.00;99.90
13049;DHT22;6591;51.446;5.404;2023-02-15T08:56:53;6.00;99.90
13049;DHT22;6591;51.446;5.404;2023-02-15T08:59:21;6.20;99.90
13049;DHT22;6591;51.446;5.404;2023-02-15T09:01:50;6.30;99.90
13049;DHT22;6591;51.446;5.404;2023-02-15T09:04:18;6.50;99.90
13049;DHT22;6591;51.446;5.404;2023-02-15T09:06:48;6.60;99.90
13049;DHT22;6591;51.446;5.404;2023-02-15T09:09:17;6.80;99.90
13049;DHT22;6591;51.446;5.404;2023-02-15T09:11:48;6.90;99.90
13049;DHT22;6591;51.446;5.404;2023-02-15T09:14:24;7.10;99.90
13049;DHT22;6591;51.446;5.404;2023-02-15T09:16:53;7.20;99.90
13049;DHT22;6591;51.446;5.404;2023-02-15T09:19:22;7.40;99.90
13049;DHT22;6591;51.446;5.404;2023-02-15T09:21:49;7.50;99.90
13049;DHT22;6591;51.446;5.404;2023-02-15T09:24:17;9.10;99.90
13049;DHT22;6591;51.446;5.404;2023-02-15T09:26:47;7.90;99.90
13049;DHT22;6591;51.446;5.404;2023-02-15T09:29:17;8.00;99.90
13049;DHT22;6591;51.446;5.404;2023-02-15T09:31:47;9.60;99.90
13049;DHT22;6591;51.446;5.404;2023-02-15T09:34:19;8.40;99.90
13049;DHT22;6591;51.446;5.404;2023-02-15T09:36:49;9.70;99.90
13049;DHT22;6591;51.446;5.404;2023-02-15T09:39:23;8.70;99.90
13049;DHT22;6591;51.446;5.404;2023-02-15T09:42:35;8.80;99.90
13049;DHT22;6591;51.446;5.404;2023-02-15T09:45:47;9.00;99.90
13049;DHT22;6591;51.446;5.404;2023-02-15T09:48:40;9.30;99.90
13049;DHT22;6591;51.446;5.404;2023-02-15T09:54:32;9.70;99.90
13049;DHT22;6591;51.446;5.404;2023-02-15T09:57:27;9.80;99.90
13049;DHT22;6591;51.446;5.404;2023-02-15T10:06:30;10.40;99.90
13049;DHT22;6591;51.446;5.404;2023-02-15T10:12:07;10.80;99.90
13049;DHT22;6591;51.446;5.404;2023-02-15T10:15:08;10.90;99.90
13049;DHT22;6591;51.446;5.404;2023-02-15T10:18:34;11.10;99.90
13049;DHT22;6591;51.446;5.404;2023-02-15T10:21:09;11.30;99.90
13049;DHT22;6591;51.446;5.404;2023-02-15T10:26:43;11.60;99.90
13049;DHT22;6591;51.446;5.404;2023-02-15T10:34:51;12.10;99.90
13049;DHT22;6591;51.446;5.404;2023-02-15T10:40:15;12.30;99.90
13049;DHT22;6591;51.446;5.404;2023-02-15T10:56:19;13.50;99.90
13049;DHT22;6591;51.446;5.404;2023-02-15T11:04:35;14.20;99.90
13049;DHT22;6591;51.446;5.404;2023-02-15T11:07:35;14.40;99.90
13049;DHT22;6591;51.446;5.404;2023-02-15T11:10:31;14.60;99.90
13049;DHT22;6591;51.446;5.404;2023-02-15T11:13:18;14.80;99.90
13049;DHT22;6591;51.446;5.404;2023-02-15T11:15:53;15.00;99.90
13049;DHT22;6591;51.446;5.404;2023-02-15T11:21:04;15.30;99.90
13049;DHT22;6591;51.446;5.404;2023-02-15T11:23:44;15.50;99.90
13049;DHT22;6591;51.446;5.404;2023-02-15T11:28:53;14.40;99.90
13049;DHT22;6591;51.446;5.404;2023-02-15T11:31:27;15.50;99.90
13049;DHT22;6591;51.446;5.404;2023-02-15T11:34:15;15.80;99.90
13049;DHT22;6591;51.446;5.404;2023-02-15T11:37:18;15.90;99.90
13049;DHT22;6591;51.446;5.404;2023-02-15T11:39:51;16.00;99.90
13049;DHT22;6591;51.446;5.404;2023-02-15T11:42:23;16.10;99.90
13049;DHT22;6591;51.446;5.404;2023-02-15T11:44:56;16.20;99.90
13049;DHT22;6591;51.446;5.404;2023-02-15T11:47:31;16.30;99.90
13049;DHT22;6591;51.446;5.404;2023-02-15T11:49:59;16.60;99.90
13049;DHT22;6591;51.446;5.404;2023-02-15T11:52:26;16.60;99.90
13049;DHT22;6591;51.446;5.404;2023-02-15T11:54:54;16.80;99.90
13049;DHT22;6591;51.446;5.404;2023-02-15T12:00:32;17.10;99.70
13049;DHT22;6591;51.446;5.404;2023-02-15T12:03:17;17.20;99.80
13049;DHT22;6591;51.446;5.404;2023-02-15T12:05:56;17.40;99.40
13049;DHT22;6591;51.446;5.404;2023-02-15T12:08:37;17.40;99.40
13049;DHT22;6591;51.446;5.404;2023-02-15T12:11:22;17.50;99.30
13049;DHT22;6591;51.446;5.404;2023-02-15T12:16:23;17.70;98.80
13049;DHT22;6591;51.446;5.404;2023-02-15T12:18:57;17.80;98.30
13049;DHT22;6591;51.446;5.404;2023-02-15T12:21:33;17.90;97.80
13049;DHT22;6591;51.446;5.404;2023-02-15T12:24:17;17.90;97.40
13049;DHT22;6591;51.446;5.404;2023-02-15T12:27:40;18.00;97.30
13049;DHT22;6591;51.446;5.404;2023-02-15T12:30:00;18.00;97.30
13049;DHT22;6591;51.446;5.404;2023-02-15T12:32:36;18.10;97.40
13049;DHT22;6591;51.446;5.404;2023-02-15T12:35:24;18.20;97.30
13049;DHT22;6591;51.446;5.404;2023-02-15T12:40:38;18.40;97.00
13049;DHT22;6591;51.446;5.404;2023-02-15T12:43:35;18.50;97.20
13049;DHT22;6591;51.446;5.404;2023-02-15T12:46:25;18.60;96.10
13049;DHT22;6591;51.446;5.404;2023-02-15T12:49:19;18.70;95.70
13049;DHT22;6591;51.446;5.404;2023-02-15T12:54:36;18.80;96.40
13049;DHT22;6591;51.446;5.404;2023-02-15T12:57:32;18.90;95.60
13049;DHT22;6591;51.446;5.404;2023-02-15T13:00:05;18.70;95.70
13049;DHT22;6591;51.446;5.404;2023-02-15T13:02:56;19.00;96.20
13049;DHT22;6591;51.446;5.404;2023-02-15T13:05:40;19.10;95.10
13049;DHT22;6591;51.446;5.404;2023-02-15T13:08:31;19.10;94.80
13049;DHT22;6591;51.446;5.404;2023-02-15T13:11:11;19.10;94.10
13049;DHT22;6591;51.446;5.404;2023-02-15T13:14:00;19.10;94.60
13049;DHT22;6591;51.446;5.404;2023-02-15T13:16:36;20.30;94.00
13049;DHT22;6591;51.446;5.404;2023-02-15T13:21:48;20.00;94.30
13049;DHT22;6591;51.446;5.404;2023-02-15T13:24:27;19.20;94.60
13049;DHT22;6591;51.446;5.404;2023-02-15T13:26:59;19.30;93.70
13049;DHT22;6591;51.446;5.404;2023-02-15T13:29:52;19.30;94.10
13049;DHT22;6591;51.446;5.404;2023-02-15T13:32:29;19.30;93.60
13049;DHT22;6591;51.446;5.404;2023-02-15T13:35:00;19.20;93.60
13049;DHT22;6591;51.446;5.404;2023-02-15T13:40:39;19.00;92.20
13049;DHT22;6591;51.446;5.404;2023-02-15T13:43:33;19.00;92.70
13049;DHT22;6591;51.446;5.404;2023-02-15T13:46:21;18.80;92.30
13049;DHT22;6591;51.446;5.404;2023-02-15T13:52:24;18.60;92.20
13049;DHT22;6591;51.446;5.404;2023-02-15T13:55:25;18.50;93.10
13049;DHT22;6591;51.446;5.404;2023-02-15T14:01:11;18.40;91.90
13049;DHT22;6591;51.446;5.404;2023-02-15T14:06:47;18.30;92.60
13049;DHT22;6591;51.446;5.404;2023-02-15T14:09:48;18.30;92.40
13049;DHT22;6591;51.446;5.404;2023-02-15T14:12:49;18.30;91.90
13049;DHT22;6591;51.446;5.404;2023-02-15T14:15:42;18.30;92.70
13049;DHT22;6591;51.446;5.404;2023-02-15T14:21:34;18.10;92.00
13049;DHT22;6591;51.446;5.404;2023-02-15T14:24:26;18.00;92.40
13049;DHT22;6591;51.446;5.404;2023-02-15T14:27:22;17.90;91.70
13049;DHT22;6591;51.446;5.404;2023-02-15T14:30:12;17.80;91.70
13049;DHT22;6591;51.446;5.404;2023-02-15T14:32:57;17.70;91.90
13049;DHT22;6591;51.446;5.404;2023-02-15T14:35:30;17.50;91.70
13049;DHT22;6591;51.446;5.404;2023-02-15T14:38:29;17.50;92.10
13049;DHT22;6591;51.446;5.404;2023-02-15T14:41:24;17.40;91.60
13049;DHT22;6591;51.446;5.404;2023-02-15T14:44:24;17.40;92.10
13049;DHT22;6591;51.446;5.404;2023-02-15T14:47:10;17.20;92.60
13049;DHT22;6591;51.446;5.404;2023-02-15T14:49:44;17.20;92.20
13049;DHT22;6591;51.446;5.404;2023-02-15T14:52:12;17.10;92.50
13049;DHT22;6591;51.446;5.404;2023-02-15T14:59:53;17.00;92.60
13049;DHT22;6591;51.446;5.404;2023-02-15T15:02:29;17.00;92.30
13049;DHT22;6591;51.446;5.404;2023-02-15T15:05:31;17.00;92.70
13049;DHT22;6591;51.446;5.404;2023-02-15T15:08:02;17.00;92.50
13049;DHT22;6591;51.446;5.404;2023-02-15T15:10:43;17.50;92.90
13049;DHT22;6591;51.446;5.404;2023-02-15T15:16:24;16.90;92.10
13049;DHT22;6591;51.446;5.404;2023-02-15T15:18:57;16.80;92.20
13049;DHT22;6591;51.446;5.404;2023-02-15T15:21:52;17.30;92.90
13049;DHT22;6591;51.446;5.404;2023-02-15T15:36:47;16.40;92.70
13049;DHT22;6591;51.446;5.404;2023-02-15T15:48:37;16.00;92.60
13049;DHT22;6591;51.446;5.404;2023-02-15T15:51:42;15.80;92.80
13049;DHT22;6591;51.446;5.404;2023-02-15T15:54:20;15.70;92.60
13049;DHT22;6591;51.446;5.404;2023-02-15T15:56:57;15.60;92.90
13049;DHT22;6591;51.446;5.404;2023-02-15T15:59:33;15.50;93.00
13049;DHT22;6591;51.446;5.404;2023-02-15T16:02:05;15.40;93.40
13049;DHT22;6591;51.446;5.404;2023-02-15T16:04:35;15.30;93.10
13049;DHT22;6591;51.446;5.404;2023-02-15T16:10:03;15.10;93.30
13049;DHT22;6591;51.446;5.404;2023-02-15T16:12:34;15.00;93.40
13049;DHT22;6591;51.446;5.404;2023-02-15T16:15:23;15.00;93.60
13049;DHT22;6591;51.446;5.404;2023-02-15T16:17:55;14.90;93.60
13049;DHT22;6591;51.446;5.404;2023-02-15T16:20:38;15.00;93.80
13049;DHT22;6591;51.446;5.404;2023-02-15T16:29:34;14.50;93.90
13049;DHT22;6591;51.446;5.404;2023-02-15T16:32:15;14.30;94.00
13049;DHT22;6591;51.446;5.404;2023-02-15T16:34:59;14.20;94.10
13049;DHT22;6591;51.446;5.404;2023-02-15T16:37:33;14.10;94.20
13049;DHT22;6591;51.446;5.404;2023-02-15T16:40:01;14.00;94.20
13049;DHT22;6591;51.446;5.404;2023-02-15T16:42:28;13.90;94.30
13049;DHT22;6591;51.446;5.404;2023-02-15T16:45:03;14.90;94.70
13049;DHT22;6591;51.446;5.404;2023-02-15T16:47:40;13.60;94.50
13049;DHT22;6591;51.446;5.404;2023-02-15T16:50:18;13.90;94.70
13049;DHT22;6591;51.446;5.404;2023-02-15T16:52:48;13.40;94.70
13049;DHT22;6591;51.446;5.404;2023-02-15T16:55:39;13.30;94.70
13049;DHT22;6591;51.446;5.404;2023-02-15T16:58:15;13.10;94.90
13049;DHT22;6591;51.446;5.404;2023-02-15T17:00:44;13.10;95.00
13049;DHT22;6591;51.446;5.404;2023-02-15T17:10:35;12.70;95.40
13049;DHT22;6591;51.446;5.404;2023-02-15T17:13:13;12.50;95.50
13049;DHT22;6591;51.446;5.404;2023-02-15T17:15:42;12.30;95.40
13049;DHT22;6591;51.446;5.404;2023-02-15T17:18:44;12.20;95.50
13049;DHT22;6591;51.446;5.404;2023-02-15T17:21:25;10.30;95.20
13049;DHT22;6591;51.446;5.404;2023-02-15T17:24:02;13.20;96.30
13049;DHT22;6591;51.446;5.404;2023-02-15T17:26:33;11.80;96.00
13049;DHT22;6591;51.446;5.404;2023-02-15T17:29:44;11.70;96.00
13049;DHT22;6591;51.446;5.404;2023-02-15T17:32:23;11.60;96.40
13049;DHT22;6591;51.446;5.404;2023-02-15T17:35:06;11.50;96.40
13049;DHT22;6591;51.446;5.404;2023-02-15T17:40:28;11.30;96.50
13049;DHT22;6591;51.446;5.404;2023-02-15T17:42:57;11.20;97.00
13049;DHT22;6591;51.446;5.404;2023-02-15T17:45:36;11.10;96.90
13049;DHT22;6591;51.446;5.404;2023-02-15T17:48:37;11.10;97.30
13049;DHT22;6591;51.446;5.404;2023-02-15T17:51:12;11.00;97.60
13049;DHT22;6591;51.446;5.404;2023-02-15T17:53:41;12.60;98.20
13049;DHT22;6591;51.446;5.404;2023-02-15T17:56:32;10.80;97.60
13049;DHT22;6591;51.446;5.404;2023-02-15T17:59:00;10.80;97.50
13049;DHT22;6591;51.446;5.404;2023-02-15T18:01:27;10.70;97.40
13049;DHT22;6591;51.446;5.404;2023-02-15T18:04:14;11.00;97.70
13049;DHT22;6591;51.446;5.404;2023-02-15T18:07:00;10.60;97.60
13049;DHT22;6591;51.446;5.404;2023-02-15T18:09:46;11.40;97.90
13049;DHT22;6591;51.446;5.404;2023-02-15T18:12:34;10.30;97.70
13049;DHT22;6591;51.446;5.404;2023-02-15T18:15:06;10.20;97.90
13049;DHT22;6591;51.446;5.404;2023-02-15T18:17:42;10.10;98.00
13049;DHT22;6591;51.446;5.404;2023-02-15T18:20:25;10.00;98.10
13049;DHT22;6591;51.446;5.404;2023-02-15T18:23:02;10.00;98.40
13049;DHT22;6591;51.446;5.404;2023-02-15T18:25:29;9.90;98.20
13049;DHT22;6591;51.446;5.404;2023-02-15T18:27:56;9.80;98.30
13049;DHT22;6591;51.446;5.404;2023-02-15T18:30:24;9.70;98.40
13049;DHT22;6591;51.446;5.404;2023-02-15T18:32:55;9.70;98.80
13049;DHT22;6591;51.446;5.404;2023-02-15T18:35:26;9.70;99.10
13049;DHT22;6591;51.446;5.404;2023-02-15T18:37:58;10.40;99.40
13049;DHT22;6591;51.446;5.404;2023-02-15T18:40:27;9.60;99.30
13049;DHT22;6591;51.446;5.404;2023-02-15T18:42:55;11.10;99.70
13049;DHT22;6591;51.446;5.404;2023-02-15T18:45:27;9.50;99.30
13049;DHT22;6591;51.446;5.404;2023-02-15T18:47:58;9.50;99.50
13049;DHT22;6591;51.446;5.404;2023-02-15T18:50:29;9.50;99.30
13049;DHT22;6591;51.446;5.404;2023-02-15T18:52:59;9.50;99.50
13049;DHT22;6591;51.446;5.404;2023-02-15T18:55:28;7.50;98.80
13049;DHT22;6591;51.446;5.404;2023-02-15T18:57:58;9.90;99.70
13049;DHT22;6591;51.446;5.404;2023-02-15T19:00:31;9.30;99.50
13049;DHT22;6591;51.446;5.404;2023-02-15T19:03:01;11.00;99.90
13049;DHT22;6591;51.446;5.404;2023-02-15T19:05:29;10.90;99.90
13049;DHT22;6591;51.446;5.404;2023-02-15T19:07:59;10.30;99.90
13049;DHT22;6591;51.446;5.404;2023-02-15T19:10:30;10.40;99.90
13049;DHT22;6591;51.446;5.404;2023-02-15T19:12:58;9.10;99.90
13049;DHT22;6591;51.446;5.404;2023-02-15T19:15:27;10.40;99.90
13049;DHT22;6591;51.446;5.404;2023-02-15T19:17:59;9.00;99.90
13049;DHT22;6591;51.446;5.404;2023-02-15T19:20:42;10.80;99.90
13049;DHT22;6591;51.446;5.404;2023-02-15T19:23:19;8.90;99.90
13049;DHT22;6591;51.446;5.404;2023-02-15T19:25:49;8.90;99.90
13049;DHT22;6591;51.446;5.404;2023-02-15T19:28:31;8.90;99.90
13049;DHT22;6591;51.446;5.404;2023-02-15T19:31:00;9.70;99.90